Time;durP1;ratioP1;P1;durP2;ratioP2;P2;SDS_P1;SDS_P2;PMS_P1;PMS_P2;Temp;Humidity;BMP_temperature;BMP_pressure;BME280_temperature;BME280_humidity;BME280_pressure;Samples;Min_cycle;Max_cycle;Signal;HPM_P1;HPM_P2
2020/12/23 00:02:19;;;;;;;62.38;27.48;;;22.40;51.60;;;;;;20923969;28;20040;-17
2020/12/23 00:12:19;;;;;;;56.75;24.45;;;22.20;52.20;;;;;;20923245;28;20476;-17
2020/12/23 00:22:20;;;;;;;39.83;20.50;;;22.10;52.20;;;;;;20910026;28;20435;-17
2020/12/23 00:32:20;;;;;;;32.45;15.95;;;22.10;51.80;;;;;;20909664;28;20481;-17
2020/12/23 00:42:22;;;;;;;25.85;13.18;;;22.00;51.40;;;;;;20909079;28;20036;-17
2020/12/23 00:52:22;;;;;;;31.15;12.05;;;21.90;51.40;;;;;;20920730;28;20123;-17
2020/12/23 01:02:23;;;;;;;23.55;10.25;;;21.70;51.40;;;;;;20908991;28;20056;-17
2020/12/23 01:12:24;;;;;;;19.42;9.30;;;21.70;51.20;;;;;;20929637;28;20032;-17
2020/12/23 01:22:24;;;;;;;17.40;7.72;;;21.70;51.20;;;;;;20929348;28;20598;-17
2020/12/23 01:32:25;;;;;;;13.37;6.50;;;21.60;51.10;;;;;;20901205;28;20024;-17
2020/12/23 01:42:25;;;;;;;14.55;6.90;;;21.50;51.20;;;;;;20940091;28;20471;-17
2020/12/23 01:52:27;;;;;;;11.63;5.68;;;21.30;51.40;;;;;;20923819;28;20111;-17
2020/12/23 02:02:35;;;;;;;11.57;5.05;;;21.20;51.70;;;;;;20920499;28;20033;-17
2020/12/23 02:12:35;;;;;;;9.40;4.13;;;21.10;51.70;;;;;;20928250;28;20056;-17
2020/12/23 02:22:39;;;;;;;7.45;4.35;;;21.00;51.80;;;;;;20889013;28;21009;-17
2020/12/23 02:32:40;;;;;;;10.35;3.72;;;21.00;51.90;;;;;;20912780;28;20378;-16
2020/12/23 02:42:40;;;;;;;11.13;4.55;;;20.90;52.10;;;;;;20920202;28;20037;-17
2020/12/23 02:52:41;;;;;;;5.75;3.75;;;20.80;52.10;;;;;;20926992;28;20090;-17
2020/12/23 03:02:41;;;;;;;10.38;3.70;;;20.80;52.00;;;;;;20929863;28;20037;-15
2020/12/23 03:12:42;;;;;;;16.98;5.28;;;20.80;52.00;;;;;;20932799;28;20445;-15
2020/12/23 03:22:42;;;;;;;7.22;3.25;;;20.70;52.00;;;;;;20923600;28;20502;-17
2020/12/23 03:32:43;;;;;;;5.80;2.28;;;20.70;52.00;;;;;;20922712;28;20082;-15
2020/12/23 03:42:43;;;;;;;6.38;2.90;;;20.70;51.90;;;;;;20924735;28;20118;-15
2020/12/23 03:52:44;;;;;;;8.40;3.10;;;20.60;51.90;;;;;;20913423;28;20033;-15
2020/12/23 04:02:45;;;;;;;9.02;2.55;;;20.60;51.90;;;;;;20912298;28;20116;-15
2020/12/23 04:12:45;;;;;;;5.82;2.50;;;20.50;51.80;;;;;;20909636;28;20025;-15
2020/12/23 04:22:46;;;;;;;5.05;2.20;;;20.50;51.90;;;;;;20920528;28;20021;-15
2020/12/23 04:32:46;;;;;;;3.85;2.13;;;20.50;51.90;;;;;;20909251;28;20087;-17
2020/12/23 04:42:47;;;;;;;4.65;2.00;;;20.40;51.80;;;;;;20908232;28;20100;-17
2020/12/23 04:52:48;;;;;;;3.38;1.40;;;20.40;51.80;;;;;;20907687;28;20025;-17
2020/12/23 05:02:48;;;;;;;4.80;2.03;;;20.40;51.80;;;;;;20906946;28;20017;-17
2020/12/23 05:12:49;;;;;;;3.15;1.38;;;20.30;51.80;;;;;;20906082;28;20084;-17
2020/12/23 05:22:51;;;;;;;2.20;1.33;;;20.30;52.00;;;;;;20908154;28;20036;-17
2020/12/23 05:32:53;;;;;;;4.32;1.42;;;20.80;51.10;;;;;;20905641;28;20489;-17
2020/12/23 05:42:56;;;;;;;2.35;1.30;;;20.80;50.80;;;;;;20925221;28;20047;-18
2020/12/23 05:52:56;;;;;;;2.20;1.13;;;20.90;50.50;;;;;;20929236;28;20078;-17
2020/12/23 06:03:19;;;;;;;3.05;1.10;;;21.00;50.40;;;;;;20934459;28;20528;-18
2020/12/23 06:13:41;;;;;;;2.55;1.58;;;21.00;50.20;;;;;;20924509;28;20075;-18
2020/12/23 06:23:41;;;;;;;2.83;1.00;;;21.00;50.20;;;;;;20924033;28;20043;-17
2020/12/23 06:33:42;;;;;;;1.67;0.90;;;21.10;50.00;;;;;;20934718;28;20064;-17
2020/12/23 06:43:55;;;;;;;2.00;1.05;;;21.10;50.00;;;;;;20945299;28;20108;-17
2020/12/23 06:53:56;;;;;;;5.22;1.77;;;21.10;49.70;;;;;;20950015;28;20136;-19
2020/12/23 07:04:02;;;;;;;4.15;1.63;;;21.10;49.80;;;;;;20942403;28;20052;-16
2020/12/23 07:14:04;;;;;;;3.15;1.42;;;21.20;49.70;;;;;;20932506;28;20036;-15
2020/12/23 07:24:05;;;;;;;3.08;1.55;;;21.10;49.70;;;;;;20931240;28;20523;-14
2020/12/23 07:34:09;;;;;;;2.22;1.00;;;21.20;49.60;;;;;;20936274;28;20029;-16
2020/12/23 07:44:11;;;;;;;2.78;1.25;;;21.10;49.60;;;;;;20922220;28;583673;-15
2020/12/23 07:54:12;;;;;;;2.35;1.20;;;21.00;49.70;;;;;;20937235;28;20033;-17
2020/12/23 08:04:13;;;;;;;3.35;1.52;;;21.00;49.70;;;;;;20920311;28;20051;-15
2020/12/23 08:14:15;;;;;;;1.90;1.50;;;21.00;49.70;;;;;;20909154;28;20037;-16
2020/12/23 08:24:16;;;;;;;4.00;1.27;;;21.10;49.70;;;;;;20911237;28;20021;-15
2020/12/23 08:34:18;;;;;;;4.78;1.50;;;20.90;50.00;;;;;;20907427;28;20031;-15
2020/12/23 08:44:21;;;;;;;3.33;1.27;;;20.70;50.50;;;;;;20908171;28;20064;-15
2020/12/23 08:54:21;;;;;;;22.02;4.07;;;20.60;51.00;;;;;;20903417;28;20091;-15
2020/12/23 09:04:30;;;;;;;9.07;4.85;;;20.70;49.90;;;;;;20851416;28;20040;-15
2020/12/23 09:14:34;;;;;;;13.27;4.53;;;21.20;48.80;;;;;;20916008;28;20036;-14
2020/12/23 09:24:34;;;;;;;19.02;4.63;;;21.40;48.70;;;;;;20927799;28;20120;-14
2020/12/23 09:34:35;;;;;;;27.10;5.63;;;21.50;49.00;;;;;;20925188;28;20052;-15
2020/12/23 09:44:36;;;;;;;36.92;6.13;;;22.10;48.60;;;;;;20903373;28;20478;-18
2020/12/23 09:54:37;;;;;;;17.17;4.72;;;22.80;47.50;;;;;;20916568;28;20060;-14
2020/12/23 10:04:37;;;;;;;23.83;6.35;;;23.50;46.40;;;;;;20902697;28;20486;-17
2020/12/23 10:14:38;;;;;;;28.23;5.55;;;23.90;45.40;;;;;;20902137;28;20521;-14
2020/12/23 10:24:39;;;;;;;25.83;6.15;;;24.10;45.20;;;;;;20889857;28;20060;-15
2020/12/23 10:34:40;;;;;;;16.88;4.07;;;24.10;45.40;;;;;;20906092;28;20500;-16
2020/12/23 10:44:40;;;;;;;24.13;5.10;;;23.90;45.40;;;;;;20926203;28;20124;-20
2020/12/23 10:54:41;;;;;;;12.32;3.75;;;23.60;45.80;;;;;;20923965;28;20068;-15
2020/12/23 11:04:44;;;;;;;22.95;4.10;;;23.50;45.90;;;;;;20932060;28;20489;-16
2020/12/23 11:14:46;;;;;;;10.75;2.92;;;23.40;46.10;;;;;;20920773;28;20031;-21
2020/12/23 11:24:46;;;;;;;11.82;3.72;;;23.20;46.40;;;;;;20932781;28;20032;-16
2020/12/23 11:34:47;;;;;;;10.43;2.58;;;23.30;46.30;;;;;;20939676;28;20029;-16
2020/12/23 11:44:47;;;;;;;10.23;2.50;;;23.10;46.50;;;;;;21009276;22;20054;-17
2020/12/23 11:54:48;;;;;;;11.40;3.97;;;23.20;46.40;;;;;;20997537;28;20027;-18
2020/12/23 12:04:49;;;;;;;10.35;3.08;;;23.00;46.70;;;;;;20983988;28;20052;-17
2020/12/23 12:14:49;;;;;;;9.60;2.47;;;22.70;47.10;;;;;;20983282;28;20373;-17
2020/12/23 12:24:50;;;;;;;6.38;2.50;;;22.50;47.50;;;;;;20995195;28;20032;-17
2020/12/23 12:34:50;;;;;;;6.05;2.38;;;22.30;48.10;;;;;;20994369;28;20063;-17
2020/12/23 12:44:51;;;;;;;9.77;3.90;;;22.00;48.60;;;;;;21001591;28;20047;-17
2020/12/23 12:54:51;;;;;;;18.48;12.80;;;21.70;49.00;;;;;;20975051;28;20036;-17
2020/12/23 13:04:52;;;;;;;23.50;14.30;;;21.50;49.30;;;;;;20975862;28;20032;-17
2020/12/23 13:14:52;;;;;;;26.90;14.20;;;21.40;49.70;;;;;;20969932;28;20545;-17
2020/12/23 13:24:54;;;;;;;18.52;11.95;;;21.40;50.10;;;;;;20977500;28;20036;-17
2020/12/23 13:34:54;;;;;;;25.15;13.00;;;21.30;50.20;;;;;;20965933;28;20037;-17
2020/12/23 13:44:55;;;;;;;18.85;13.48;;;21.20;50.50;;;;;;20966157;28;20034;-17
2020/12/23 13:54:55;;;;;;;19.58;12.30;;;21.10;50.70;;;;;;20967067;28;20108;-16
2020/12/23 14:04:56;;;;;;;23.88;14.68;;;21.00;51.00;;;;;;20953850;28;20037;-16
2020/12/23 14:14:56;;;;;;;19.40;12.70;;;21.00;51.10;;;;;;20953216;28;20030;-16
2020/12/23 14:24:57;;;;;;;22.75;11.73;;;21.00;51.40;;;;;;20975616;28;20033;-16
2020/12/23 14:34:57;;;;;;;17.67;12.23;;;21.10;51.40;;;;;;20978016;28;20090;-16
2020/12/23 14:44:58;;;;;;;19.17;9.77;;;21.60;50.70;;;;;;20960567;28;20044;-16
2020/12/23 14:54:59;;;;;;;13.23;7.80;;;22.20;49.70;;;;;;20974234;28;20544;-16
2020/12/23 15:04:59;;;;;;;12.03;6.83;;;23.20;48.00;;;;;;20982337;28;20506;-16
2020/12/23 15:15:00;;;;;;;12.73;6.35;;;23.90;46.30;;;;;;20958580;28;20470;-16
2020/12/23 15:25:01;;;;;;;8.55;5.05;;;24.10;45.70;;;;;;20979021;28;20136;-16
2020/12/23 15:35:01;;;;;;;8.18;4.35;;;24.40;45.10;;;;;;20987050;28;20039;-16
2020/12/23 15:45:02;;;;;;;6.67;5.03;;;24.70;44.30;;;;;;20976106;28;20032;-16
2020/12/23 15:55:03;;;;;;;6.32;2.97;;;24.70;44.40;;;;;;20975706;28;20466;-16
2020/12/23 16:05:05;;;;;;;7.53;2.90;;;24.40;44.60;;;;;;20974247;28;20123;-16
2020/12/23 16:15:07;;;;;;;8.45;4.10;;;24.10;45.10;;;;;;20966298;28;20070;-16
2020/12/23 16:25:07;;;;;;;18.45;4.10;;;24.00;45.60;;;;;;20993423;28;20020;-17
2020/12/23 16:35:08;;;;;;;13.02;3.58;;;23.90;46.10;;;;;;20992866;28;20024;-17
2020/12/23 16:45:08;;;;;;;14.73;3.87;;;23.70;46.70;;;;;;20996494;28;20056;-17
2020/12/23 16:55:09;;;;;;;11.03;3.57;;;23.80;47.40;;;;;;21006562;28;20612;-17
2020/12/23 17:05:09;;;;;;;8.88;4.15;;;23.70;47.80;;;;;;20992202;28;20470;-17
2020/12/23 17:15:10;;;;;;;16.05;7.53;;;23.70;47.40;;;;;;20990279;28;20024;-16
2020/12/23 17:25:11;;;;;;;16.65;7.35;;;23.60;47.00;;;;;;20988078;28;20043;-16
2020/12/23 17:35:11;;;;;;;23.02;6.63;;;23.90;46.90;;;;;;20986148;28;20586;-16
2020/12/23 17:45:14;;;;;;;50.83;20.23;;;23.80;47.20;;;;;;21041728;22;20043;-17
2020/12/23 17:55:14;;;;;;;42.75;18.67;;;24.00;47.40;;;;;;21025919;28;20033;-16
2020/12/23 18:05:15;;;;;;;39.85;18.60;;;23.90;47.60;;;;;;21017643;28;20451;-16
2020/12/23 18:15:16;;;;;;;31.88;16.10;;;24.10;47.30;;;;;;21025611;28;20089;-16
2020/12/23 18:25:16;;;;;;;35.47;14.30;;;24.00;47.40;;;;;;21023060;28;20052;-17
2020/12/23 18:35:17;;;;;;;27.55;13.55;;;24.10;47.30;;;;;;21026979;28;20155;-16
2020/12/23 18:45:18;;;;;;;16.92;10.85;;;24.10;47.30;;;;;;21026254;28;20063;-16
2020/12/23 18:55:19;;;;;;;28.55;10.73;;;24.10;47.40;;;;;;21014704;28;20059;-15
2020/12/23 19:05:20;;;;;;;20.58;9.82;;;24.10;47.60;;;;;;21022180;28;20056;-16
2020/12/23 19:15:24;;;;;;;18.70;9.63;;;24.00;47.90;;;;;;21005903;28;20035;-17
2020/12/23 19:25:28;;;;;;;18.63;9.65;;;24.00;47.80;;;;;;21052991;28;20146;-16
2020/12/23 19:35:29;;;;;;;21.58;9.70;;;24.00;47.80;;;;;;21058759;28;20031;-16
2020/12/23 19:45:30;;;;;;;19.67;8.32;;;24.00;48.00;;;;;;21069899;28;20086;-16
2020/12/23 19:55:31;;;;;;;13.65;8.00;;;24.00;47.90;;;;;;21079498;28;20110;-16
2020/12/23 20:05:32;;;;;;;13.88;7.68;;;23.90;48.20;;;;;;21078699;28;20058;-16
2020/12/23 20:15:32;;;;;;;18.98;8.23;;;24.00;48.00;;;;;;21078856;28;20099;-15
2020/12/23 20:25:33;;;;;;;28.60;16.05;;;23.90;48.30;;;;;;21075474;28;20047;-16
2020/12/23 20:35:33;;;;;;;23.90;13.05;;;23.90;48.70;;;;;;21070983;28;20042;-16
2020/12/23 20:45:34;;;;;;;27.77;13.40;;;23.90;49.00;;;;;;21057914;28;20110;-16
2020/12/23 20:55:35;;;;;;;24.00;10.30;;;23.80;49.10;;;;;;21059855;28;20067;-16
2020/12/23 21:05:35;;;;;;;18.35;10.50;;;23.90;49.10;;;;;;20991586;28;20040;-16
2020/12/23 21:15:36;;;;;;;21.42;9.65;;;23.80;49.70;;;;;;20989524;28;20028;-16
2020/12/23 21:25:37;;;;;;;16.88;8.52;;;24.00;49.70;;;;;;20988340;28;20109;-16
2020/12/23 21:35:37;;;;;;;18.10;9.30;;;23.90;50.10;;;;;;20971969;28;20042;-16
2020/12/23 21:45:38;;;;;;;26.45;10.00;;;24.00;49.90;;;;;;20982423;28;20020;-15
2020/12/23 21:55:39;;;;;;;20.02;9.27;;;23.90;50.30;;;;;;20984404;28;20098;-18
2020/12/23 22:05:39;;;;;;;23.88;9.68;;;24.10;50.40;;;;;;20990379;28;20036;-17
2020/12/23 22:15:40;;;;;;;16.10;8.32;;;24.00;50.80;;;;;;20984495;28;20459;-17
2020/12/23 22:25:40;;;;;;;13.95;7.03;;;23.80;51.70;;;;;;20982450;28;20120;-16
2020/12/23 22:35:41;;;;;;;14.90;7.78;;;23.80;51.40;;;;;;20961946;28;20029;-17
2020/12/23 22:45:42;;;;;;;19.85;6.78;;;23.80;52.10;;;;;;20986083;28;20119;-16
2020/12/23 22:55:42;;;;;;;14.40;6.30;;;23.80;52.00;;;;;;20970001;28;20028;-16
2020/12/23 23:05:43;;;;;;;12.65;5.80;;;23.90;52.10;;;;;;20926852;28;20036;-17
2020/12/23 23:15:44;;;;;;;17.05;6.28;;;23.80;52.30;;;;;;20962574;28;20105;-16
2020/12/23 23:25:44;;;;;;;18.15;7.00;;;23.90;52.00;;;;;;21027338;28;20036;-16
2020/12/23 23:35:45;;;;;;;15.02;8.85;;;23.70;52.20;;;;;;21033002;28;20036;-16
2020/12/23 23:45:45;;;;;;;13.85;6.93;;;23.60;52.40;;;;;;21074181;28;20040;-16
2020/12/23 23:55:46;;;;;;;23.25;6.68;;;23.50;52.70;;;;;;21043124;28;20054;-16
